Time;durP1;ratioP1;P1;durP2;ratioP2;P2;SDS_P1;SDS_P2;PMS_P1;PMS_P2;Temp;Humidity;BMP_temperature;BMP_pressure;BME280_temperature;BME280_humidity;BME280_pressure;Samples;Min_cycle;Max_cycle;Signal;HPM_P1;HPM_P2
2023/06/29 00:04:25;;;;;;;4.67;3.93;;;;;;;;;;10344014;28;20302;-75
2023/06/29 00:09:26;;;;;;;5.27;4.30;;;;;;;;;;10326027;28;21215;-74
2023/06/29 00:14:26;;;;;;;4.40;3.80;;;;;;;;;;10344447;28;20049;-75
2023/06/29 00:19:26;;;;;;;4.23;3.93;;;;;;;;;;10309715;28;20058;-74
2023/06/29 00:24:28;;;;;;;4.25;3.85;;;;;;;;;;10343253;28;20064;-75
2023/06/29 00:29:29;;;;;;;6.20;3.80;;;;;;;;;;10336524;28;20824;-74
2023/06/29 00:34:31;;;;;;;4.93;3.92;;;;;;;;;;10349902;28;20073;-74
2023/06/29 00:39:31;;;;;;;4.65;4.13;;;;;;;;;;10344922;28;20064;-73
2023/06/29 00:44:33;;;;;;;4.32;4.03;;;;;;;;;;10331851;28;20046;-74
2023/06/29 00:49:33;;;;;;;4.40;3.90;;;;;;;;;;10345952;28;20057;-74
2023/06/29 00:54:33;;;;;;;4.77;4.30;;;;;;;;;;10337243;28;20393;-73
2023/06/29 00:59:34;;;;;;;4.30;3.83;;;;;;;;;;10340044;28;20316;-74
2023/06/29 01:04:36;;;;;;;4.35;3.95;;;;;;;;;;10326468;28;20364;-74
2023/06/29 01:09:37;;;;;;;5.15;4.63;;;;;;;;;;10342012;28;20030;-75
2023/06/29 01:14:41;;;;;;;4.32;3.92;;;;;;;;;;10343505;28;20141;-74
2023/06/29 01:19:43;;;;;;;4.60;4.20;;;;;;;;;;10350889;28;20054;-74
2023/06/29 01:24:44;;;;;;;4.88;4.32;;;;;;;;;;10332011;28;20199;-75
2023/06/29 01:29:45;;;;;;;4.85;4.38;;;;;;;;;;10343636;28;20065;-76
2023/06/29 01:34:45;;;;;;;4.93;4.43;;;;;;;;;;10346812;28;20076;-74
2023/06/29 01:40:06;;;;;;;4.68;4.28;;;;;;;;;;10333889;28;20347;-74
2023/06/29 01:45:07;;;;;;;4.97;4.57;;;;;;;;;;10330905;28;20054;-74
2023/06/29 01:50:08;;;;;;;4.78;4.28;;;;;;;;;;10348624;28;20196;-74
2023/06/29 01:55:11;;;;;;;4.63;4.22;;;;;;;;;;10335802;28;20041;-74
2023/06/29 02:00:12;;;;;;;4.88;4.38;;;;;;;;;;10346993;28;20042;-76
2023/06/29 02:05:15;;;;;;;5.68;4.63;;;;;;;;;;10333817;28;20493;-74
2023/06/29 02:10:15;;;;;;;4.88;4.47;;;;;;;;;;10316497;28;20077;-75
2023/06/29 02:15:16;;;;;;;5.30;4.88;;;;;;;;;;10346666;28;20053;-74
2023/06/29 02:20:17;;;;;;;5.88;5.07;;;;;;;;;;10344422;28;20050;-75
2023/06/29 02:25:17;;;;;;;5.18;4.68;;;;;;;;;;10333109;28;20038;-75
2023/06/29 02:30:18;;;;;;;5.35;4.80;;;;;;;;;;10349473;28;20042;-75
2023/06/29 02:35:18;;;;;;;5.50;4.85;;;;;;;;;;10328479;28;20100;-74
2023/06/29 02:40:19;;;;;;;5.60;5.07;;;;;;;;;;10349520;28;20049;-75
2023/06/29 02:45:19;;;;;;;5.30;4.80;;;;;;;;;;10345059;28;20136;-73
2023/06/29 02:50:20;;;;;;;5.45;4.95;;;;;;;;;;10333951;28;20116;-74
2023/06/29 02:55:23;;;;;;;6.20;5.45;;;;;;;;;;10330626;28;20050;-74
2023/06/29 03:00:24;;;;;;;5.45;4.97;;;;;;;;;;10340703;28;20145;-74
2023/06/29 03:05:24;;;;;;;5.77;5.17;;;;;;;;;;10343979;28;20038;-74
2023/06/29 03:10:24;;;;;;;5.80;5.30;;;;;;;;;;10345810;28;20316;-74
2023/06/29 03:15:25;;;;;;;5.80;5.30;;;;;;;;;;10344146;28;20854;-74
2023/06/29 03:20:25;;;;;;;6.97;4.90;;;;;;;;;;10343193;28;20053;-75
2023/06/29 03:25:26;;;;;;;5.88;5.30;;;;;;;;;;10343047;28;20049;-73
2023/06/29 03:30:26;;;;;;;5.20;4.70;;;;;;;;;;10346923;28;21181;-75
2023/06/29 03:35:27;;;;;;;5.30;4.80;;;;;;;;;;10346315;28;20442;-75
2023/06/29 03:40:28;;;;;;;5.90;5.30;;;;;;;;;;10345285;28;20050;-75
2023/06/29 03:45:30;;;;;;;5.97;4.70;;;;;;;;;;10342532;28;20073;-75
2023/06/29 03:50:30;;;;;;;5.50;4.43;;;;;;;;;;10371303;28;20068;-80
2023/06/29 03:55:30;;;;;;;5.13;4.73;;;;;;;;;;10375343;28;20060;-76
2023/06/29 04:00:31;;;;;;;5.47;4.75;;;;;;;;;;10343384;28;20125;-74
2023/06/29 04:05:31;;;;;;;5.60;4.93;;;;;;;;;;10344250;28;20457;-74
2023/06/29 04:10:33;;;;;;;6.55;5.65;;;;;;;;;;10344043;28;20104;-76
2023/06/29 04:15:33;;;;;;;5.80;5.20;;;;;;;;;;10356113;28;20494;-74
2023/06/29 04:20:35;;;;;;;6.10;5.47;;;;;;;;;;10348644;28;20049;-75
2023/06/29 04:25:35;;;;;;;5.70;4.97;;;;;;;;;;10327375;28;20289;-75
2023/06/29 04:30:36;;;;;;;5.40;4.87;;;;;;;;;;10342165;28;20050;-77
2023/06/29 04:35:40;;;;;;;5.18;4.25;;;;;;;;;;10343693;28;20402;-73
2023/06/29 04:40:42;;;;;;;6.13;4.95;;;;;;;;;;10341877;28;20479;-73
2023/06/29 04:45:42;;;;;;;4.15;3.85;;;;;;;;;;10345854;28;20042;-75
2023/06/29 04:50:43;;;;;;;4.78;3.38;;;;;;;;;;10326614;28;20648;-74
2023/06/29 04:55:43;;;;;;;3.85;3.55;;;;;;;;;;10346826;28;20172;-75
2023/06/29 05:00:43;;;;;;;4.05;3.75;;;;;;;;;;10350398;28;21199;-75
2023/06/29 05:05:44;;;;;;;5.03;3.90;;;;;;;;;;10350914;28;20050;-74
2023/06/29 05:10:44;;;;;;;4.18;3.80;;;;;;;;;;10360843;28;20758;-77
2023/06/29 05:15:47;;;;;;;3.70;3.40;;;;;;;;;;10355148;28;20049;-76
2023/06/29 05:20:47;;;;;;;;;;;;;;;;;;10333805;28;20050;-76
2023/06/29 05:25:48;;;;;;;3.70;3.40;;;;;;;;;;10354779;28;19917;-75
2023/06/29 05:30:48;;;;;;;4.00;3.70;;;;;;;;;;10348090;28;20080;-76
2023/06/29 05:35:49;;;;;;;4.13;3.60;;;;;;;;;;10330605;28;20116;-76
2023/06/29 05:40:49;;;;;;;3.60;3.30;;;;;;;;;;10347068;28;20288;-75
2023/06/29 05:45:49;;;;;;;3.70;3.30;;;;;;;;;;10347303;28;20045;-75
2023/06/29 05:50:50;;;;;;;4.20;3.70;;;;;;;;;;10350371;28;20049;-78
2023/06/29 05:55:50;;;;;;;3.80;3.43;;;;;;;;;;10332551;28;20315;-76
2023/06/29 06:00:51;;;;;;;3.77;3.10;;;;;;;;;;10347478;28;20296;-75
2023/06/29 06:05:51;;;;;;;5.43;3.42;;;;;;;;;;10328010;28;20036;-73
2023/06/29 06:10:52;;;;;;;4.23;3.73;;;;;;;;;;10346549;28;20060;-75
2023/06/29 06:15:52;;;;;;;7.20;6.40;;;;;;;;;;10344453;28;20053;-75
2023/06/29 06:20:52;;;;;;;6.10;5.17;;;;;;;;;;10347404;28;20351;-75
2023/06/29 06:25:53;;;;;;;5.90;5.30;;;;;;;;;;10351154;28;20056;-74
2023/06/29 06:30:53;;;;;;;3.77;3.43;;;;;;;;;;10333738;28;20300;-75
2023/06/29 06:35:54;;;;;;;3.40;3.10;;;;;;;;;;10349790;28;20052;-75
2023/06/29 06:40:54;;;;;;;3.10;2.77;;;;;;;;;;10349738;28;20042;-76
2023/06/29 06:45:54;;;;;;;3.63;3.00;;;;;;;;;;10344707;28;20041;-79
2023/06/29 06:50:55;;;;;;;3.45;3.15;;;;;;;;;;10329926;28;20050;-78
2023/06/29 06:55:55;;;;;;;3.77;2.80;;;;;;;;;;10345532;28;20058;-79
2023/06/29 07:00:55;;;;;;;3.27;2.90;;;;;;;;;;10351095;28;20713;-78
2023/06/29 07:05:57;;;;;;;4.60;3.10;;;;;;;;;;10314429;28;20061;-77
2023/06/29 07:10:58;;;;;;;3.22;2.55;;;;;;;;;;10349322;28;20370;-78
2023/06/29 07:15:58;;;;;;;12.38;9.82;;;;;;;;;;10370943;28;20042;-76
2023/06/29 07:20:59;;;;;;;3.93;2.90;;;;;;;;;;10356914;28;20076;-76
2023/06/29 07:26:00;;;;;;;5.32;2.95;;;;;;;;;;10339783;28;20284;-78
2023/06/29 07:31:00;;;;;;;3.20;2.80;;;;;;;;;;10334227;28;20107;-78
2023/06/29 07:36:01;;;;;;;3.17;2.50;;;;;;;;;;10344314;28;20128;-78
2023/06/29 07:41:04;;;;;;;4.40;3.20;;;;;;;;;;10329975;28;20064;-78
2023/06/29 07:46:05;;;;;;;4.22;2.85;;;;;;;;;;10314693;28;20050;-78
2023/06/29 07:51:06;;;;;;;4.97;3.35;;;;;;;;;;10332775;28;20042;-76
2023/06/29 07:56:06;;;;;;;3.35;2.83;;;;;;;;;;10331547;28;20073;-77
2023/06/29 08:01:07;;;;;;;3.92;2.92;;;;;;;;;;10345702;28;20042;-77
2023/06/29 08:06:07;;;;;;;3.50;2.88;;;;;;;;;;10336880;28;20046;-76
2023/06/29 08:11:10;;;;;;;4.95;2.85;;;;;;;;;;10348986;28;20069;-78
2023/06/29 08:16:12;;;;;;;4.90;3.10;;;;;;;;;;10328390;28;20054;-77
2023/06/29 08:21:12;;;;;;;3.90;3.13;;;;;;;;;;10344300;28;20441;-77
2023/06/29 08:26:13;;;;;;;4.40;3.60;;;;;;;;;;10350307;28;20042;-77
2023/06/29 08:31:14;;;;;;;4.47;3.47;;;;;;;;;;10344126;28;20073;-77
2023/06/29 08:36:15;;;;;;;4.28;3.13;;;;;;;;;;10328144;28;20042;-76
2023/06/29 08:41:15;;;;;;;3.78;2.60;;;;;;;;;;10348023;28;20042;-79
2023/06/29 08:46:17;;;;;;;5.22;3.17;;;;;;;;;;10339901;28;20115;-74
2023/06/29 08:51:18;;;;;;;4.53;3.08;;;;;;;;;;10332490;28;20048;-75
2023/06/29 08:56:20;;;;;;;3.55;2.83;;;;;;;;;;10345324;28;20046;-77
2023/06/29 09:01:20;;;;;;;3.65;2.67;;;;;;;;;;10346272;28;20049;-75
2023/06/29 09:06:22;;;;;;;3.97;2.40;;;;;;;;;;10341674;28;20509;-75
2023/06/29 09:11:23;;;;;;;4.13;2.60;;;;;;;;;;10329571;28;20056;-75
2023/06/29 09:16:28;;;;;;;2.80;2.47;;;;;;;;;;10344527;28;20065;-74
2023/06/29 09:21:29;;;;;;;3.58;2.38;;;;;;;;;;10341047;28;20050;-75
2023/06/29 09:26:29;;;;;;;3.53;2.30;;;;;;;;;;10344543;28;20065;-76
2023/06/29 09:31:33;;;;;;;4.78;2.67;;;;;;;;;;10342313;28;20060;-75
2023/06/29 09:36:34;;;;;;;3.65;2.85;;;;;;;;;;10337038;28;20054;-76
2023/06/29 09:41:45;;;;;;;3.80;3.17;;;;;;;;;;10363834;28;20073;-76
2023/06/29 09:46:46;;;;;;;5.47;4.00;;;;;;;;;;10352867;28;20057;-77
2023/06/29 09:51:48;;;;;;;4.60;3.40;;;;;;;;;;10366341;28;20042;-79
2023/06/29 09:56:48;;;;;;;4.88;2.88;;;;;;;;;;10362301;28;20053;-79
2023/06/29 10:01:49;;;;;;;3.97;3.07;;;;;;;;;;10338778;28;20058;-78
2023/06/29 10:06:59;;;;;;;4.77;3.00;;;;;;;;;;10355513;28;20050;-79
2023/06/29 10:11:59;;;;;;;3.17;2.78;;;;;;;;;;10362786;28;20053;-78
2023/06/29 10:17:01;;;;;;;2.90;2.60;;;;;;;;;;10334040;28;20526;-74
2023/06/29 10:22:07;;;;;;;3.63;2.70;;;;;;;;;;10331595;28;20042;-74
2023/06/29 10:27:08;;;;;;;3.78;2.90;;;;;;;;;;10311286;28;20042;-76
2023/06/29 10:32:08;;;;;;;3.17;2.73;;;;;;;;;;10346612;28;20050;-74
2023/06/29 10:37:08;;;;;;;3.07;2.70;;;;;;;;;;10344704;28;20057;-76
2023/06/29 10:42:32;;;;;;;3.33;2.40;;;;;;;;;;10350664;28;20389;-77
2023/06/29 10:47:42;;;;;;;4.25;2.90;;;;;;;;;;10325312;28;20050;-75
2023/06/29 10:52:43;;;;;;;2.95;2.35;;;;;;;;;;10329280;28;20060;-77
2023/06/29 10:57:47;;;;;;;2.70;2.30;;;;;;;;;;10347463;28;20061;-73
2023/06/29 11:02:48;;;;;;;2.60;2.40;;;;;;;;;;10343775;28;20061;-74
2023/06/29 11:07:51;;;;;;;2.40;2.20;;;;;;;;;;10347449;28;20057;-75
2023/06/29 11:12:54;;;;;;;2.40;2.20;;;;;;;;;;10331728;28;20038;-76
2023/06/29 11:17:54;;;;;;;2.40;2.20;;;;;;;;;;10344101;28;20107;-76
2023/06/29 11:22:56;;;;;;;3.13;2.27;;;;;;;;;;10345716;28;20479;-74
2023/06/29 11:27:57;;;;;;;2.42;2.10;;;;;;;;;;10345897;28;20065;-74
2023/06/29 11:32:59;;;;;;;10.60;9.50;;;;;;;;;;10345388;28;20506;-73
2023/06/29 11:38:00;;;;;;;4.43;2.20;;;;;;;;;;10327056;28;20124;-74
2023/06/29 11:43:01;;;;;;;2.40;2.20;;;;;;;;;;10332303;28;20042;-77
2023/06/29 11:48:03;;;;;;;4.25;2.88;;;;;;;;;;10318295;28;20050;-75
2023/06/29 11:53:05;;;;;;;3.95;2.50;;;;;;;;;;10334384;28;20049;-76
2023/06/29 11:58:05;;;;;;;;;;;;;;;;;;10345820;28;20058;-73
2023/06/29 12:03:06;;;;;;;4.40;2.40;;;;;;;;;;10346529;28;19925;-74
2023/06/29 12:08:08;;;;;;;2.95;2.25;;;;;;;;;;10347402;28;20124;-79
2023/06/29 12:13:10;;;;;;;2.47;2.28;;;;;;;;;;10350725;28;20067;-79
2023/06/29 12:18:11;;;;;;;3.10;2.37;;;;;;;;;;10355933;28;20165;-74
2023/06/29 12:23:13;;;;;;;2.92;2.40;;;;;;;;;;10343950;28;20046;-74
2023/06/29 12:28:13;;;;;;;5.07;2.10;;;;;;;;;;10331349;28;20081;-73
2023/06/29 12:33:14;;;;;;;2.97;2.00;;;;;;;;;;10343778;28;22365;-73
2023/06/29 12:38:16;;;;;;;3.97;2.67;;;;;;;;;;10345410;28;20069;-77
2023/06/29 12:43:16;;;;;;;3.00;2.15;;;;;;;;;;10336157;28;20046;-76
2023/06/29 12:48:17;;;;;;;1.97;1.87;;;;;;;;;;10348242;28;20064;-76
2023/06/29 12:53:19;;;;;;;2.67;2.20;;;;;;;;;;10350975;28;20077;-78
2023/06/29 12:58:24;;;;;;;2.55;2.10;;;;;;;;;;10351351;28;20050;-79
2023/06/29 13:03:29;;;;;;;2.58;2.08;;;;;;;;;;10359428;28;20049;-82
2023/06/29 13:08:33;;;;;;;2.78;2.40;;;;;;;;;;10385996;28;20046;-78
2023/06/29 13:13:34;;;;;;;3.85;2.10;;;;;;;;;;10401126;28;20110;-79
2023/06/29 13:18:38;;;;;;;2.97;2.30;;;;;;;;;;10386847;28;20077;-82
2023/06/29 13:23:39;;;;;;;2.87;2.27;;;;;;;;;;10343797;28;20053;-77
2023/06/29 13:28:39;;;;;;;2.63;2.20;;;;;;;;;;10354267;28;20489;-85
2023/06/29 13:33:40;;;;;;;3.67;2.50;;;;;;;;;;10349211;28;20045;-85
2023/06/29 13:38:40;;;;;;;2.90;2.30;;;;;;;;;;10347311;28;20057;-76
2023/06/29 13:43:42;;;;;;;2.73;2.17;;;;;;;;;;10350068;28;20045;-77
2023/06/29 13:48:42;;;;;;;4.68;2.60;;;;;;;;;;10350322;28;20048;-76
2023/06/29 13:53:42;;;;;;;2.73;2.30;;;;;;;;;;10349572;28;20055;-76
2023/06/29 13:58:43;;;;;;;2.90;2.33;;;;;;;;;;10346965;28;20066;-76
2023/06/29 14:03:44;;;;;;;2.83;2.30;;;;;;;;;;10344969;28;20042;-74
2023/06/29 14:08:45;;;;;;;3.28;2.33;;;;;;;;;;10348936;28;20073;-76
2023/06/29 14:13:46;;;;;;;2.80;2.50;;;;;;;;;;10334718;28;20081;-77
2023/06/29 14:18:46;;;;;;;2.67;2.40;;;;;;;;;;10302523;28;1100127;-78
2023/06/29 14:23:47;;;;;;;2.73;2.40;;;;;;;;;;10339584;28;20042;-76
2023/06/29 14:28:47;;;;;;;2.67;2.30;;;;;;;;;;10351007;28;20124;-76
2023/06/29 14:33:48;;;;;;;2.83;2.20;;;;;;;;;;10368144;28;20037;-75
2023/06/29 14:38:48;;;;;;;2.43;2.07;;;;;;;;;;10364955;28;20062;-76
2023/06/29 14:43:50;;;;;;;3.53;2.20;;;;;;;;;;10359359;28;20112;-77
2023/06/29 14:48:50;;;;;;;2.88;2.50;;;;;;;;;;10352127;28;20038;-76
2023/06/29 14:53:51;;;;;;;2.80;2.60;;;;;;;;;;10362232;28;20046;-75
2023/06/29 14:58:51;;;;;;;3.53;2.50;;;;;;;;;;10339761;28;20758;-75
2023/06/29 15:03:51;;;;;;;10.90;2.53;;;;;;;;;;10356647;28;20037;-76
2023/06/29 15:08:52;;;;;;;2.37;2.17;;;;;;;;;;10358061;28;20041;-78
2023/06/29 15:13:53;;;;;;;3.07;2.43;;;;;;;;;;10356499;28;20488;-76
2023/06/29 15:18:54;;;;;;;4.40;2.70;;;;;;;;;;10337477;28;20701;-77
2023/06/29 15:23:54;;;;;;;3.23;2.93;;;;;;;;;;10354211;28;20066;-76
2023/06/29 15:28:56;;;;;;;4.10;2.40;;;;;;;;;;10346689;28;20045;-75
2023/06/29 15:33:57;;;;;;;2.63;2.40;;;;;;;;;;10347571;28;20435;-76
2023/06/29 15:38:57;;;;;;;2.80;2.47;;;;;;;;;;10346478;28;20065;-76
2023/06/29 15:43:59;;;;;;;3.03;2.50;;;;;;;;;;10345815;28;20038;-77
2023/06/29 15:49:00;;;;;;;3.22;2.50;;;;;;;;;;10324612;28;20072;-78
2023/06/29 15:54:00;;;;;;;2.60;2.40;;;;;;;;;;10329563;28;20034;-75
2023/06/29 15:59:00;;;;;;;2.60;2.40;;;;;;;;;;10341061;28;20049;-77
2023/06/29 16:04:01;;;;;;;3.73;2.33;;;;;;;;;;10344560;28;21429;-75
2023/06/29 16:09:01;;;;;;;4.00;2.50;;;;;;;;;;10326533;28;20050;-75
2023/06/29 16:14:01;;;;;;;2.43;2.23;;;;;;;;;;10344455;28;21016;-75
2023/06/29 16:19:02;;;;;;;3.30;2.20;;;;;;;;;;10348456;28;20313;-76
2023/06/29 16:24:02;;;;;;;4.47;2.97;;;;;;;;;;10334557;28;20042;-75
2023/06/29 16:29:03;;;;;;;4.33;4.00;;;;;;;;;;10345252;28;20041;-76
2023/06/29 16:34:03;;;;;;;3.53;3.03;;;;;;;;;;10330322;28;20050;-80
2023/06/29 16:39:04;;;;;;;3.63;3.27;;;;;;;;;;10344932;28;20064;-77
2023/06/29 16:44:04;;;;;;;3.30;2.90;;;;;;;;;;10338621;28;20038;-77
2023/06/29 16:49:04;;;;;;;3.90;3.03;;;;;;;;;;10347475;28;20053;-75
2023/06/29 16:54:05;;;;;;;4.37;3.00;;;;;;;;;;10354703;28;20073;-77
2023/06/29 16:59:05;;;;;;;3.70;3.30;;;;;;;;;;10347899;28;20624;-79
2023/06/29 17:04:06;;;;;;;3.27;2.93;;;;;;;;;;10345944;28;20037;-78
2023/06/29 17:09:06;;;;;;;4.10;2.97;;;;;;;;;;10347814;28;20037;-77
2023/06/29 17:14:06;;;;;;;3.50;3.20;;;;;;;;;;10332820;28;20037;-81
2023/06/29 17:19:07;;;;;;;3.53;3.03;;;;;;;;;;10349606;28;20088;-79
2023/06/29 17:24:07;;;;;;;3.57;3.10;;;;;;;;;;10336987;28;20038;-77
2023/06/29 17:29:08;;;;;;;3.80;3.33;;;;;;;;;;10337587;28;20061;-78
2023/06/29 17:34:08;;;;;;;3.77;3.10;;;;;;;;;;10354304;28;20033;-79
2023/06/29 17:39:10;;;;;;;4.60;3.30;;;;;;;;;;10346801;28;20528;-81
2023/06/29 17:44:10;;;;;;;3.75;3.45;;;;;;;;;;10327528;28;20046;-78
2023/06/29 17:49:11;;;;;;;5.27;3.53;;;;;;;;;;10342627;28;20120;-78
2023/06/29 17:54:12;;;;;;;7.40;3.60;;;;;;;;;;10341314;28;20053;-78
2023/06/29 17:59:12;;;;;;;3.53;3.20;;;;;;;;;;10348506;28;20049;-79
2023/06/29 18:04:12;;;;;;;3.83;3.47;;;;;;;;;;10351206;28;20034;-78
2023/06/29 18:09:13;;;;;;;3.27;3.07;;;;;;;;;;10347254;28;20050;-77
2023/06/29 18:14:14;;;;;;;4.05;3.40;;;;;;;;;;10334590;28;20048;-75
2023/06/29 18:19:14;;;;;;;4.53;3.37;;;;;;;;;;10349346;28;20076;-79
2023/06/29 18:24:15;;;;;;;4.77;3.50;;;;;;;;;;10354085;28;20054;-75
2023/06/29 18:29:15;;;;;;;4.22;3.33;;;;;;;;;;10355218;28;20050;-78
2023/06/29 18:34:16;;;;;;;5.03;3.50;;;;;;;;;;10353440;28;20418;-78
2023/06/29 18:39:16;;;;;;;4.00;3.20;;;;;;;;;;10349316;28;20313;-77
2023/06/29 18:44:16;;;;;;;4.20;3.30;;;;;;;;;;10345569;28;20779;-77
2023/06/29 18:49:17;;;;;;;4.88;3.83;;;;;;;;;;10333561;28;20276;-78
2023/06/29 18:54:17;;;;;;;4.10;3.63;;;;;;;;;;10350939;28;20161;-82
2023/06/29 18:59:18;;;;;;;3.57;3.27;;;;;;;;;;10343410;28;20061;-77
2023/06/29 19:04:18;;;;;;;3.60;3.30;;;;;;;;;;10347767;28;20300;-78
2023/06/29 19:09:19;;;;;;;4.25;3.85;;;;;;;;;;10347246;28;20122;-79
2023/06/29 19:14:19;;;;;;;4.85;4.45;;;;;;;;;;10344787;28;20709;-76
2023/06/29 19:19:20;;;;;;;4.00;3.70;;;;;;;;;;10357481;28;20620;-77
2023/06/29 19:24:22;;;;;;;4.75;4.40;;;;;;;;;;10350415;28;20416;-77
2023/06/29 19:29:24;;;;;;;6.90;5.07;;;;;;;;;;10351663;28;20099;-77
2023/06/29 19:34:25;;;;;;;4.95;4.45;;;;;;;;;;10348040;28;20053;-80
2023/06/29 19:39:25;;;;;;;4.93;4.53;;;;;;;;;;10346187;28;20076;-81
2023/06/29 19:44:26;;;;;;;6.07;4.60;;;;;;;;;;10334860;28;20049;-78
2023/06/29 19:49:26;;;;;;;5.33;4.77;;;;;;;;;;10347121;28;20068;-75
2023/06/29 19:54:31;;;;;;;5.55;5.05;;;;;;;;;;10346097;28;20285;-75
2023/06/29 19:59:31;;;;;;;5.80;5.13;;;;;;;;;;10348153;28;20414;-78
2023/06/29 20:04:32;;;;;;;5.57;4.60;;;;;;;;;;10341001;28;20803;-74
2023/06/29 20:09:33;;;;;;;5.38;4.72;;;;;;;;;;10342156;28;20509;-74
2023/06/29 20:14:33;;;;;;;5.95;4.90;;;;;;;;;;10338948;28;20046;-75
2023/06/29 20:19:34;;;;;;;4.40;4.00;;;;;;;;;;10339658;28;20049;-73
2023/06/29 20:24:34;;;;;;;5.07;4.40;;;;;;;;;;10341960;28;20589;-75
2023/06/29 20:29:35;;;;;;;6.53;4.97;;;;;;;;;;10327153;28;20355;-73
2023/06/29 20:34:35;;;;;;;6.32;5.45;;;;;;;;;;10343111;28;20273;-75
2023/06/29 20:39:36;;;;;;;5.27;4.83;;;;;;;;;;10343518;28;20049;-75
2023/06/29 20:44:36;;;;;;;5.17;4.67;;;;;;;;;;10343040;28;20132;-74
2023/06/29 20:49:36;;;;;;;5.07;4.67;;;;;;;;;;10345036;28;20053;-77
2023/06/29 20:54:37;;;;;;;5.23;4.77;;;;;;;;;;10342079;28;20038;-73
2023/06/29 20:59:37;;;;;;;5.55;5.05;;;;;;;;;;10340593;28;20050;-77
2023/06/29 21:04:37;;;;;;;6.10;5.50;;;;;;;;;;10345743;28;20038;-75
2023/06/29 21:09:38;;;;;;;5.40;4.90;;;;;;;;;;10346097;28;20046;-75
2023/06/29 21:14:38;;;;;;;5.20;4.70;;;;;;;;;;10343706;28;20038;-75
2023/06/29 21:19:39;;;;;;;5.13;4.63;;;;;;;;;;10343850;28;20058;-75
2023/06/29 21:24:39;;;;;;;5.43;4.80;;;;;;;;;;10340497;28;20782;-75
2023/06/29 21:29:42;;;;;;;5.20;4.70;;;;;;;;;;10331143;28;20465;-75
2023/06/29 21:34:43;;;;;;;6.00;5.40;;;;;;;;;;10357428;28;20041;-75
2023/06/29 21:39:43;;;;;;;6.78;5.40;;;;;;;;;;10342168;28;20060;-76
2023/06/29 21:44:43;;;;;;;5.97;5.37;;;;;;;;;;10350149;28;20046;-78
2023/06/29 21:49:44;;;;;;;6.83;6.13;;;;;;;;;;10337627;28;20077;-76
2023/06/29 21:54:44;;;;;;;6.90;6.20;;;;;;;;;;10350645;28;20081;-74
2023/06/29 21:59:45;;;;;;;5.63;5.13;;;;;;;;;;10331898;28;20061;-74
2023/06/29 22:04:45;;;;;;;6.87;6.27;;;;;;;;;;10351358;28;20320;-75
2023/06/29 22:09:45;;;;;;;6.57;5.87;;;;;;;;;;10347666;28;20665;-77
2023/06/29 22:14:49;;;;;;;6.37;5.77;;;;;;;;;;10346545;28;20034;-76
2023/06/29 22:20:10;;;;;;;5.75;5.22;;;;;;;;;;10319151;28;20073;-75
2023/06/29 22:25:11;;;;;;;5.97;5.38;;;;;;;;;;10349819;28;20038;-74
2023/06/29 22:30:11;;;;;;;6.93;6.10;;;;;;;;;;10346351;28;20050;-73
2023/06/29 22:35:11;;;;;;;6.00;5.47;;;;;;;;;;10347924;28;20045;-73
2023/06/29 22:40:12;;;;;;;6.78;6.18;;;;;;;;;;10346253;28;20353;-73
2023/06/29 22:45:12;;;;;;;6.87;6.00;;;;;;;;;;10345495;28;20034;-73
2023/06/29 22:50:13;;;;;;;7.10;6.40;;;;;;;;;;10345221;28;20289;-73
2023/06/29 22:55:13;;;;;;;6.63;6.07;;;;;;;;;;10345872;28;20402;-74
2023/06/29 23:00:13;;;;;;;7.63;6.83;;;;;;;;;;10349276;28;20752;-75
2023/06/29 23:05:14;;;;;;;7.20;6.53;;;;;;;;;;10346040;28;20038;-73
2023/06/29 23:10:15;;;;;;;6.72;6.13;;;;;;;;;;10350544;28;20391;-74
2023/06/29 23:15:15;;;;;;;7.80;6.65;;;;;;;;;;10343027;28;20104;-75
2023/06/29 23:20:15;;;;;;;9.20;7.40;;;;;;;;;;10344416;28;20061;-74
2023/06/29 23:25:16;;;;;;;7.57;6.80;;;;;;;;;;10344600;28;21078;-75
2023/06/29 23:30:16;;;;;;;8.17;7.33;;;;;;;;;;10344608;28;20380;-74
2023/06/29 23:35:17;;;;;;;7.82;7.13;;;;;;;;;;10345578;28;20315;-74
2023/06/29 23:40:17;;;;;;;8.30;7.50;;;;;;;;;;10345208;28;20137;-74
2023/06/29 23:45:17;;;;;;;7.90;7.13;;;;;;;;;;10345075;28;20145;-76
2023/06/29 23:50:18;;;;;;;8.10;7.33;;;;;;;;;;10328690;28;20846;-74
2023/06/29 23:55:18;;;;;;;7.70;7.03;;;;;;;;;;10346383;28;20378;-73
